sensor_id;sensor_type;location;lat;lon;timestamp;P1;durP1;ratioP1;P2;durP2;ratioP2
41631;SDS011;37452;51.938;4.624;2023-04-09T00:02:13;33.73;;;18.07;;
41631;SDS011;37452;51.938;4.624;2023-04-09T00:04:40;30.20;;;16.40;;
41631;SDS011;37452;51.938;4.624;2023-04-09T00:07:05;32.77;;;17.43;;
41631;SDS011;37452;51.938;4.624;2023-04-09T00:09:31;26.50;;;15.97;;
41631;SDS011;37452;51.938;4.624;2023-04-09T00:11:56;30.30;;;17.47;;
41631;SDS011;37452;51.938;4.624;2023-04-09T00:14:22;32.43;;;16.80;;
41631;SDS011;37452;51.938;4.624;2023-04-09T00:16:47;29.70;;;16.67;;
41631;SDS011;37452;51.938;4.624;2023-04-09T00:19:13;31.23;;;17.57;;
41631;SDS011;37452;51.938;4.624;2023-04-09T00:21:38;28.50;;;17.07;;
41631;SDS011;37452;51.938;4.624;2023-04-09T00:24:03;31.17;;;18.10;;
41631;SDS011;37452;51.938;4.624;2023-04-09T00:26:29;31.10;;;17.77;;
41631;SDS011;37452;51.938;4.624;2023-04-09T00:28:55;30.07;;;17.73;;
41631;SDS011;37452;51.938;4.624;2023-04-09T00:31:20;33.73;;;18.90;;
41631;SDS011;37452;51.938;4.624;2023-04-09T00:33:46;34.57;;;20.17;;
41631;SDS011;37452;51.938;4.624;2023-04-09T00:36:11;31.50;;;18.13;;
41631;SDS011;37452;51.938;4.624;2023-04-09T00:38:36;37.23;;;18.97;;
41631;SDS011;37452;51.938;4.624;2023-04-09T00:41:02;37.63;;;19.23;;
41631;SDS011;37452;51.938;4.624;2023-04-09T00:43:27;35.53;;;19.83;;
41631;SDS011;37452;51.938;4.624;2023-04-09T00:45:53;37.73;;;19.70;;
41631;SDS011;37452;51.938;4.624;2023-04-09T00:48:18;37.37;;;19.30;;
41631;SDS011;37452;51.938;4.624;2023-04-09T00:50:45;27.73;;;16.07;;
41631;SDS011;37452;51.938;4.624;2023-04-09T00:53:10;31.80;;;18.43;;
41631;SDS011;37452;51.938;4.624;2023-04-09T00:55:38;28.33;;;16.60;;
41631;SDS011;37452;51.938;4.624;2023-04-09T00:58:04;28.63;;;16.23;;
41631;SDS011;37452;51.938;4.624;2023-04-09T01:00:30;27.77;;;16.53;;
41631;SDS011;37452;51.938;4.624;2023-04-09T01:02:55;29.00;;;14.70;;
41631;SDS011;37452;51.938;4.624;2023-04-09T01:05:23;29.07;;;15.27;;
41631;SDS011;37452;51.938;4.624;2023-04-09T01:08:09;30.50;;;16.65;;
41631;SDS011;37452;51.938;4.624;2023-04-09T01:13:29;38.53;;;19.13;;
41631;SDS011;37452;51.938;4.624;2023-04-09T01:16:00;37.40;;;19.23;;
41631;SDS011;37452;51.938;4.624;2023-04-09T01:18:30;42.37;;;20.90;;
41631;SDS011;37452;51.938;4.624;2023-04-09T01:21:05;42.93;;;22.00;;
41631;SDS011;37452;51.938;4.624;2023-04-09T01:29:29;45.50;;;23.50;;
41631;SDS011;37452;51.938;4.624;2023-04-09T01:31:56;45.67;;;22.57;;
41631;SDS011;37452;51.938;4.624;2023-04-09T01:34:24;44.10;;;23.03;;
41631;SDS011;37452;51.938;4.624;2023-04-09T01:36:53;44.17;;;22.50;;
41631;SDS011;37452;51.938;4.624;2023-04-09T01:39:21;42.07;;;22.30;;
41631;SDS011;37452;51.938;4.624;2023-04-09T01:41:48;46.13;;;22.77;;
41631;SDS011;37452;51.938;4.624;2023-04-09T01:44:15;43.63;;;23.27;;
41631;SDS011;37452;51.938;4.624;2023-04-09T01:46:42;40.73;;;21.57;;
41631;SDS011;37452;51.938;4.624;2023-04-09T01:49:08;49.97;;;23.50;;
41631;SDS011;37452;51.938;4.624;2023-04-09T01:51:35;43.53;;;21.93;;
41631;SDS011;37452;51.938;4.624;2023-04-09T01:54:00;45.20;;;23.03;;
41631;SDS011;37452;51.938;4.624;2023-04-09T01:56:26;47.07;;;22.17;;
41631;SDS011;37452;51.938;4.624;2023-04-09T01:58:51;39.67;;;21.37;;
41631;SDS011;37452;51.938;4.624;2023-04-09T02:01:23;40.97;;;23.00;;
41631;SDS011;37452;51.938;4.624;2023-04-09T02:03:55;39.43;;;21.20;;
41631;SDS011;37452;51.938;4.624;2023-04-09T02:06:27;37.70;;;19.63;;
41631;SDS011;37452;51.938;4.624;2023-04-09T02:08:59;40.67;;;20.57;;
41631;SDS011;37452;51.938;4.624;2023-04-09T02:11:25;38.65;;;20.50;;
41631;SDS011;37452;51.938;4.624;2023-04-09T02:13:53;38.57;;;19.70;;
41631;SDS011;37452;51.938;4.624;2023-04-09T02:16:20;39.17;;;20.57;;
41631;SDS011;37452;51.938;4.624;2023-04-09T02:18:48;39.27;;;20.60;;
41631;SDS011;37452;51.938;4.624;2023-04-09T02:21:17;39.38;;;20.27;;
41631;SDS011;37452;51.938;4.624;2023-04-09T02:23:42;34.90;;;19.60;;
41631;SDS011;37452;51.938;4.624;2023-04-09T02:26:07;38.10;;;21.33;;
41631;SDS011;37452;51.938;4.624;2023-04-09T02:28:33;36.50;;;19.70;;
41631;SDS011;37452;51.938;4.624;2023-04-09T02:30:58;36.93;;;19.70;;
41631;SDS011;37452;51.938;4.624;2023-04-09T02:33:23;35.93;;;19.53;;
41631;SDS011;37452;51.938;4.624;2023-04-09T02:35:49;40.30;;;19.97;;
41631;SDS011;37452;51.938;4.624;2023-04-09T02:38:14;34.42;;;19.23;;
41631;SDS011;37452;51.938;4.624;2023-04-09T02:40:40;35.35;;;18.35;;
41631;SDS011;37452;51.938;4.624;2023-04-09T02:43:05;36.80;;;19.58;;
41631;SDS011;37452;51.938;4.624;2023-04-09T02:45:31;32.90;;;18.70;;
41631;SDS011;37452;51.938;4.624;2023-04-09T02:47:56;36.43;;;18.77;;
41631;SDS011;37452;51.938;4.624;2023-04-09T02:50:21;41.03;;;20.10;;
41631;SDS011;37452;51.938;4.624;2023-04-09T02:52:47;37.13;;;18.90;;
41631;SDS011;37452;51.938;4.624;2023-04-09T02:55:12;36.85;;;19.02;;
41631;SDS011;37452;51.938;4.624;2023-04-09T02:57:38;37.20;;;20.00;;
41631;SDS011;37452;51.938;4.624;2023-04-09T03:00:03;35.83;;;20.43;;
41631;SDS011;37452;51.938;4.624;2023-04-09T03:02:29;34.50;;;19.77;;
41631;SDS011;37452;51.938;4.624;2023-04-09T03:04:54;37.40;;;20.17;;
41631;SDS011;37452;51.938;4.624;2023-04-09T03:07:20;37.10;;;19.47;;
41631;SDS011;37452;51.938;4.624;2023-04-09T03:09:46;32.95;;;18.73;;
41631;SDS011;37452;51.938;4.624;2023-04-09T03:12:11;37.80;;;20.63;;
41631;SDS011;37452;51.938;4.624;2023-04-09T03:14:36;34.03;;;17.87;;
41631;SDS011;37452;51.938;4.624;2023-04-09T03:17:02;35.55;;;19.48;;
41631;SDS011;37452;51.938;4.624;2023-04-09T03:19:27;34.90;;;18.50;;
41631;SDS011;37452;51.938;4.624;2023-04-09T03:21:54;32.80;;;17.75;;
41631;SDS011;37452;51.938;4.624;2023-04-09T03:24:19;33.03;;;18.23;;
41631;SDS011;37452;51.938;4.624;2023-04-09T03:26:45;35.72;;;19.10;;
41631;SDS011;37452;51.938;4.624;2023-04-09T03:29:10;33.42;;;16.83;;
41631;SDS011;37452;51.938;4.624;2023-04-09T03:31:36;36.77;;;18.50;;
41631;SDS011;37452;51.938;4.624;2023-04-09T03:34:01;32.03;;;17.87;;
41631;SDS011;37452;51.938;4.624;2023-04-09T03:36:27;34.17;;;17.40;;
41631;SDS011;37452;51.938;4.624;2023-04-09T03:38:52;34.33;;;18.58;;
41631;SDS011;37452;51.938;4.624;2023-04-09T03:41:18;36.85;;;19.15;;
41631;SDS011;37452;51.938;4.624;2023-04-09T03:43:43;36.47;;;19.05;;
41631;SDS011;37452;51.938;4.624;2023-04-09T03:46:12;34.88;;;18.35;;
41631;SDS011;37452;51.938;4.624;2023-04-09T03:48:38;32.55;;;17.65;;
41631;SDS011;37452;51.938;4.624;2023-04-09T03:51:04;37.88;;;19.60;;
41631;SDS011;37452;51.938;4.624;2023-04-09T03:53:29;34.80;;;18.20;;
41631;SDS011;37452;51.938;4.624;2023-04-09T03:55:55;35.63;;;19.35;;
41631;SDS011;37452;51.938;4.624;2023-04-09T03:58:20;36.07;;;18.90;;
41631;SDS011;37452;51.938;4.624;2023-04-09T04:00:45;35.47;;;18.90;;
41631;SDS011;37452;51.938;4.624;2023-04-09T04:03:11;32.65;;;18.67;;
41631;SDS011;37452;51.938;4.624;2023-04-09T04:05:38;36.30;;;19.30;;
41631;SDS011;37452;51.938;4.624;2023-04-09T04:08:04;34.88;;;18.92;;
41631;SDS011;37452;51.938;4.624;2023-04-09T04:10:29;36.70;;;18.85;;
41631;SDS011;37452;51.938;4.624;2023-04-09T04:12:54;38.13;;;20.17;;
41631;SDS011;37452;51.938;4.624;2023-04-09T04:15:20;32.30;;;18.48;;
41631;SDS011;37452;51.938;4.624;2023-04-09T04:17:45;35.33;;;19.52;;
41631;SDS011;37452;51.938;4.624;2023-04-09T04:20:11;35.78;;;19.30;;
41631;SDS011;37452;51.938;4.624;2023-04-09T04:22:36;34.97;;;18.20;;
41631;SDS011;37452;51.938;4.624;2023-04-09T04:25:02;32.72;;;17.27;;
41631;SDS011;37452;51.938;4.624;2023-04-09T04:27:28;34.05;;;18.23;;
41631;SDS011;37452;51.938;4.624;2023-04-09T04:29:53;30.45;;;16.67;;
41631;SDS011;37452;51.938;4.624;2023-04-09T04:32:19;30.83;;;17.15;;
41631;SDS011;37452;51.938;4.624;2023-04-09T04:34:47;31.80;;;17.25;;
41631;SDS011;37452;51.938;4.624;2023-04-09T04:37:13;33.92;;;18.80;;
41631;SDS011;37452;51.938;4.624;2023-04-09T04:39:39;30.70;;;17.63;;
41631;SDS011;37452;51.938;4.624;2023-04-09T04:42:04;32.60;;;18.08;;
41631;SDS011;37452;51.938;4.624;2023-04-09T04:44:30;36.00;;;17.70;;
41631;SDS011;37452;51.938;4.624;2023-04-09T04:46:55;34.50;;;17.63;;
41631;SDS011;37452;51.938;4.624;2023-04-09T04:49:20;34.35;;;18.52;;
41631;SDS011;37452;51.938;4.624;2023-04-09T04:51:46;37.17;;;19.45;;
41631;SDS011;37452;51.938;4.624;2023-04-09T04:54:11;38.30;;;19.05;;
41631;SDS011;37452;51.938;4.624;2023-04-09T04:56:36;32.47;;;17.40;;
41631;SDS011;37452;51.938;4.624;2023-04-09T04:59:02;31.38;;;17.77;;
41631;SDS011;37452;51.938;4.624;2023-04-09T05:01:27;32.03;;;16.75;;
41631;SDS011;37452;51.938;4.624;2023-04-09T05:03:53;34.33;;;18.20;;
41631;SDS011;37452;51.938;4.624;2023-04-09T05:06:18;33.72;;;18.95;;
41631;SDS011;37452;51.938;4.624;2023-04-09T05:08:43;29.52;;;15.85;;
41631;SDS011;37452;51.938;4.624;2023-04-09T05:11:12;35.22;;;18.55;;
41631;SDS011;37452;51.938;4.624;2023-04-09T05:13:39;32.30;;;17.75;;
41631;SDS011;37452;51.938;4.624;2023-04-09T05:16:04;33.92;;;19.38;;
41631;SDS011;37452;51.938;4.624;2023-04-09T05:18:30;31.77;;;17.13;;
41631;SDS011;37452;51.938;4.624;2023-04-09T05:20:55;31.65;;;17.13;;
41631;SDS011;37452;51.938;4.624;2023-04-09T05:23:21;28.58;;;15.45;;
41631;SDS011;37452;51.938;4.624;2023-04-09T05:25:49;33.53;;;17.42;;
41631;SDS011;37452;51.938;4.624;2023-04-09T05:28:15;34.10;;;18.05;;
41631;SDS011;37452;51.938;4.624;2023-04-09T05:30:46;28.75;;;16.50;;
41631;SDS011;37452;51.938;4.624;2023-04-09T05:33:12;39.63;;;17.98;;
41631;SDS011;37452;51.938;4.624;2023-04-09T05:35:37;36.03;;;18.95;;
41631;SDS011;37452;51.938;4.624;2023-04-09T05:38:03;35.95;;;18.38;;
41631;SDS011;37452;51.938;4.624;2023-04-09T05:40:29;33.30;;;18.02;;
41631;SDS011;37452;51.938;4.624;2023-04-09T05:42:54;33.25;;;17.33;;
41631;SDS011;37452;51.938;4.624;2023-04-09T05:45:20;30.67;;;16.77;;
41631;SDS011;37452;51.938;4.624;2023-04-09T05:47:45;33.30;;;16.60;;
41631;SDS011;37452;51.938;4.624;2023-04-09T05:50:11;30.75;;;16.95;;
41631;SDS011;37452;51.938;4.624;2023-04-09T05:52:36;30.27;;;17.08;;
41631;SDS011;37452;51.938;4.624;2023-04-09T05:55:01;35.30;;;17.58;;
41631;SDS011;37452;51.938;4.624;2023-04-09T05:57:27;35.42;;;18.02;;
41631;SDS011;37452;51.938;4.624;2023-04-09T05:59:54;36.20;;;17.75;;
41631;SDS011;37452;51.938;4.624;2023-04-09T06:02:20;34.65;;;17.85;;
41631;SDS011;37452;51.938;4.624;2023-04-09T06:04:45;32.28;;;17.20;;
41631;SDS011;37452;51.938;4.624;2023-04-09T06:07:10;35.88;;;18.40;;
41631;SDS011;37452;51.938;4.624;2023-04-09T06:09:36;30.67;;;16.85;;
41631;SDS011;37452;51.938;4.624;2023-04-09T06:12:02;37.83;;;18.98;;
41631;SDS011;37452;51.938;4.624;2023-04-09T06:14:28;33.13;;;17.50;;
41631;SDS011;37452;51.938;4.624;2023-04-09T06:16:53;34.90;;;17.52;;
41631;SDS011;37452;51.938;4.624;2023-04-09T06:19:18;33.30;;;17.65;;
41631;SDS011;37452;51.938;4.624;2023-04-09T06:21:44;37.03;;;17.70;;
41631;SDS011;37452;51.938;4.624;2023-04-09T06:24:09;39.13;;;19.08;;
41631;SDS011;37452;51.938;4.624;2023-04-09T06:26:34;37.90;;;18.67;;
41631;SDS011;37452;51.938;4.624;2023-04-09T06:29:00;42.53;;;20.30;;
41631;SDS011;37452;51.938;4.624;2023-04-09T06:31:26;37.88;;;19.67;;
41631;SDS011;37452;51.938;4.624;2023-04-09T06:33:51;36.45;;;18.73;;
41631;SDS011;37452;51.938;4.624;2023-04-09T06:36:16;36.70;;;18.63;;
41631;SDS011;37452;51.938;4.624;2023-04-09T06:38:42;42.22;;;20.90;;
41631;SDS011;37452;51.938;4.624;2023-04-09T06:41:07;44.38;;;20.55;;
41631;SDS011;37452;51.938;4.624;2023-04-09T06:43:33;45.15;;;20.85;;
41631;SDS011;37452;51.938;4.624;2023-04-09T06:45:58;44.40;;;20.23;;
41631;SDS011;37452;51.938;4.624;2023-04-09T06:48:23;41.28;;;20.50;;
41631;SDS011;37452;51.938;4.624;2023-04-09T06:50:49;45.08;;;22.13;;
41631;SDS011;37452;51.938;4.624;2023-04-09T06:53:14;51.38;;;22.65;;
41631;SDS011;37452;51.938;4.624;2023-04-09T06:55:40;53.88;;;22.77;;
41631;SDS011;37452;51.938;4.624;2023-04-09T06:58:06;45.35;;;20.65;;
41631;SDS011;37452;51.938;4.624;2023-04-09T07:00:31;50.42;;;22.33;;
41631;SDS011;37452;51.938;4.624;2023-04-09T07:02:56;54.75;;;22.27;;
41631;SDS011;37452;51.938;4.624;2023-04-09T07:05:22;50.83;;;23.83;;
41631;SDS011;37452;51.938;4.624;2023-04-09T07:07:47;49.60;;;22.08;;
41631;SDS011;37452;51.938;4.624;2023-04-09T07:10:13;53.65;;;23.60;;
41631;SDS011;37452;51.938;4.624;2023-04-09T07:12:39;52.60;;;23.48;;
41631;SDS011;37452;51.938;4.624;2023-04-09T07:15:04;51.28;;;23.15;;
41631;SDS011;37452;51.938;4.624;2023-04-09T07:17:31;52.63;;;22.80;;
41631;SDS011;37452;51.938;4.624;2023-04-09T07:19:57;58.47;;;24.20;;
41631;SDS011;37452;51.938;4.624;2023-04-09T07:22:23;53.35;;;24.23;;
41631;SDS011;37452;51.938;4.624;2023-04-09T07:24:50;52.97;;;23.90;;
41631;SDS011;37452;51.938;4.624;2023-04-09T07:27:25;53.47;;;24.83;;
41631;SDS011;37452;51.938;4.624;2023-04-09T07:29:58;61.05;;;25.65;;
41631;SDS011;37452;51.938;4.624;2023-04-09T07:32:24;54.38;;;24.20;;
41631;SDS011;37452;51.938;4.624;2023-04-09T07:34:51;62.25;;;26.65;;
41631;SDS011;37452;51.938;4.624;2023-04-09T07:37:17;62.33;;;26.67;;
41631;SDS011;37452;51.938;4.624;2023-04-09T07:39:42;58.17;;;24.80;;
41631;SDS011;37452;51.938;4.624;2023-04-09T07:42:07;68.65;;;27.88;;
41631;SDS011;37452;51.938;4.624;2023-04-09T07:44:33;60.28;;;25.83;;
41631;SDS011;37452;51.938;4.624;2023-04-09T07:47:00;61.63;;;26.40;;
41631;SDS011;37452;51.938;4.624;2023-04-09T07:49:29;60.72;;;26.70;;
41631;SDS011;37452;51.938;4.624;2023-04-09T07:51:55;57.95;;;27.20;;
41631;SDS011;37452;51.938;4.624;2023-04-09T07:54:21;64.95;;;27.17;;
41631;SDS011;37452;51.938;4.624;2023-04-09T07:56:47;61.25;;;25.73;;
41631;SDS011;37452;51.938;4.624;2023-04-09T07:59:12;58.45;;;25.80;;
41631;SDS011;37452;51.938;4.624;2023-04-09T08:01:39;55.30;;;24.92;;
41631;SDS011;37452;51.938;4.624;2023-04-09T08:04:05;55.20;;;27.17;;
41631;SDS011;37452;51.938;4.624;2023-04-09T08:06:30;56.00;;;25.25;;
41631;SDS011;37452;51.938;4.624;2023-04-09T08:08:57;59.58;;;25.80;;
41631;SDS011;37452;51.938;4.624;2023-04-09T08:11:22;60.42;;;25.92;;
41631;SDS011;37452;51.938;4.624;2023-04-09T08:13:50;59.17;;;25.58;;
41631;SDS011;37452;51.938;4.624;2023-04-09T08:16:16;60.90;;;25.73;;
41631;SDS011;37452;51.938;4.624;2023-04-09T08:18:41;61.72;;;25.52;;
41631;SDS011;37452;51.938;4.624;2023-04-09T08:21:06;54.45;;;24.80;;
41631;SDS011;37452;51.938;4.624;2023-04-09T08:23:32;53.05;;;24.17;;
41631;SDS011;37452;51.938;4.624;2023-04-09T08:25:57;57.80;;;28.13;;
41631;SDS011;37452;51.938;4.624;2023-04-09T08:28:22;53.53;;;25.05;;
41631;SDS011;37452;51.938;4.624;2023-04-09T08:30:48;53.97;;;23.35;;
41631;SDS011;37452;51.938;4.624;2023-04-09T08:33:13;61.50;;;27.63;;
41631;SDS011;37452;51.938;4.624;2023-04-09T08:35:38;59.35;;;25.33;;
41631;SDS011;37452;51.938;4.624;2023-04-09T08:38:05;58.72;;;27.30;;
41631;SDS011;37452;51.938;4.624;2023-04-09T08:40:34;61.15;;;25.52;;
41631;SDS011;37452;51.938;4.624;2023-04-09T08:43:00;61.30;;;28.48;;
41631;SDS011;37452;51.938;4.624;2023-04-09T08:45:29;61.33;;;26.75;;
41631;SDS011;37452;51.938;4.624;2023-04-09T08:47:54;60.58;;;28.90;;
41631;SDS011;37452;51.938;4.624;2023-04-09T08:50:23;57.58;;;27.10;;
41631;SDS011;37452;51.938;4.624;2023-04-09T08:52:49;62.35;;;28.35;;
41631;SDS011;37452;51.938;4.624;2023-04-09T08:55:15;59.55;;;28.00;;
41631;SDS011;37452;51.938;4.624;2023-04-09T08:57:40;69.53;;;29.80;;
41631;SDS011;37452;51.938;4.624;2023-04-09T09:00:07;65.75;;;30.25;;
41631;SDS011;37452;51.938;4.624;2023-04-09T09:02:33;61.92;;;29.33;;
41631;SDS011;37452;51.938;4.624;2023-04-09T09:04:59;63.53;;;29.17;;
41631;SDS011;37452;51.938;4.624;2023-04-09T09:07:27;61.45;;;28.50;;
41631;SDS011;37452;51.938;4.624;2023-04-09T09:09:57;67.57;;;29.67;;
41631;SDS011;37452;51.938;4.624;2023-04-09T09:14:56;72.32;;;31.15;;
41631;SDS011;37452;51.938;4.624;2023-04-09T09:17:21;73.10;;;31.55;;
41631;SDS011;37452;51.938;4.624;2023-04-09T09:19:46;67.40;;;30.33;;
41631;SDS011;37452;51.938;4.624;2023-04-09T09:22:11;63.92;;;30.20;;
41631;SDS011;37452;51.938;4.624;2023-04-09T09:24:50;64.47;;;29.33;;
41631;SDS011;37452;51.938;4.624;2023-04-09T09:27:36;72.13;;;30.92;;
41631;SDS011;37452;51.938;4.624;2023-04-09T09:30:04;65.30;;;29.75;;
41631;SDS011;37452;51.938;4.624;2023-04-09T09:32:31;69.90;;;30.40;;
41631;SDS011;37452;51.938;4.624;2023-04-09T09:34:58;69.57;;;31.35;;
41631;SDS011;37452;51.938;4.624;2023-04-09T09:37:25;62.88;;;29.70;;
41631;SDS011;37452;51.938;4.624;2023-04-09T09:39:54;59.15;;;28.90;;
41631;SDS011;37452;51.938;4.624;2023-04-09T09:42:20;69.10;;;29.40;;
41631;SDS011;37452;51.938;4.624;2023-04-09T09:44:46;65.85;;;30.23;;
41631;SDS011;37452;51.938;4.624;2023-04-09T09:47:12;63.28;;;30.40;;
41631;SDS011;37452;51.938;4.624;2023-04-09T09:49:39;64.85;;;29.02;;
41631;SDS011;37452;51.938;4.624;2023-04-09T09:52:08;65.47;;;29.42;;
41631;SDS011;37452;51.938;4.624;2023-04-09T09:54:39;56.08;;;26.75;;
41631;SDS011;37452;51.938;4.624;2023-04-09T09:57:09;59.28;;;29.08;;
41631;SDS011;37452;51.938;4.624;2023-04-09T09:59:38;62.65;;;29.27;;
41631;SDS011;37452;51.938;4.624;2023-04-09T10:02:05;60.38;;;28.08;;
41631;SDS011;37452;51.938;4.624;2023-04-09T10:04:38;58.33;;;27.48;;
41631;SDS011;37452;51.938;4.624;2023-04-09T10:07:05;57.83;;;27.10;;
41631;SDS011;37452;51.938;4.624;2023-04-09T10:09:32;52.95;;;25.20;;
41631;SDS011;37452;51.938;4.624;2023-04-09T10:11:59;50.13;;;24.83;;
41631;SDS011;37452;51.938;4.624;2023-04-09T10:14:26;53.03;;;24.27;;
41631;SDS011;37452;51.938;4.624;2023-04-09T10:16:53;51.90;;;23.90;;
41631;SDS011;37452;51.938;4.624;2023-04-09T10:19:18;50.47;;;22.73;;
41631;SDS011;37452;51.938;4.624;2023-04-09T10:24:17;45.20;;;21.80;;
41631;SDS011;37452;51.938;4.624;2023-04-09T10:26:43;48.83;;;23.05;;
41631;SDS011;37452;51.938;4.624;2023-04-09T10:29:12;49.45;;;22.92;;
41631;SDS011;37452;51.938;4.624;2023-04-09T10:31:52;47.22;;;22.60;;
41631;SDS011;37452;51.938;4.624;2023-04-09T10:34:23;48.75;;;23.30;;
41631;SDS011;37452;51.938;4.624;2023-04-09T10:36:52;45.53;;;22.50;;
41631;SDS011;37452;51.938;4.624;2023-04-09T10:39:24;47.33;;;23.17;;
41631;SDS011;37452;51.938;4.624;2023-04-09T10:41:50;43.45;;;22.42;;
41631;SDS011;37452;51.938;4.624;2023-04-09T10:44:21;47.58;;;22.70;;
41631;SDS011;37452;51.938;4.624;2023-04-09T10:46:47;41.33;;;22.73;;
41631;SDS011;37452;51.938;4.624;2023-04-09T10:49:15;44.35;;;23.30;;
41631;SDS011;37452;51.938;4.624;2023-04-09T10:51:49;42.30;;;22.48;;
41631;SDS011;37452;51.938;4.624;2023-04-09T10:59:35;42.20;;;21.58;;
41631;SDS011;37452;51.938;4.624;2023-04-09T11:02:06;47.17;;;23.67;;
41631;SDS011;37452;51.938;4.624;2023-04-09T11:04:49;42.50;;;22.95;;
41631;SDS011;37452;51.938;4.624;2023-04-09T11:07:28;44.00;;;22.77;;
41631;SDS011;37452;51.938;4.624;2023-04-09T11:09:56;44.28;;;23.23;;
41631;SDS011;37452;51.938;4.624;2023-04-09T11:12:22;40.53;;;22.73;;
41631;SDS011;37452;51.938;4.624;2023-04-09T11:14:47;38.90;;;22.13;;
41631;SDS011;37452;51.938;4.624;2023-04-09T11:17:12;39.08;;;22.50;;
41631;SDS011;37452;51.938;4.624;2023-04-09T11:19:38;40.58;;;23.05;;
41631;SDS011;37452;51.938;4.624;2023-04-09T11:22:04;42.97;;;23.38;;
41631;SDS011;37452;51.938;4.624;2023-04-09T11:24:43;38.30;;;21.35;;
41631;SDS011;37452;51.938;4.624;2023-04-09T11:27:10;42.22;;;23.27;;
41631;SDS011;37452;51.938;4.624;2023-04-09T11:29:36;37.78;;;22.23;;
41631;SDS011;37452;51.938;4.624;2023-04-09T11:32:02;37.53;;;22.63;;
41631;SDS011;37452;51.938;4.624;2023-04-09T11:34:31;40.97;;;21.95;;
41631;SDS011;37452;51.938;4.624;2023-04-09T11:36:56;41.58;;;23.23;;
41631;SDS011;37452;51.938;4.624;2023-04-09T11:39:23;37.58;;;22.02;;
41631;SDS011;37452;51.938;4.624;2023-04-09T11:41:50;35.85;;;20.88;;
41631;SDS011;37452;51.938;4.624;2023-04-09T11:44:16;38.13;;;21.92;;
41631;SDS011;37452;51.938;4.624;2023-04-09T11:46:41;40.97;;;22.02;;
41631;SDS011;37452;51.938;4.624;2023-04-09T11:49:07;41.30;;;21.85;;
41631;SDS011;37452;51.938;4.624;2023-04-09T11:51:33;39.33;;;22.45;;
41631;SDS011;37452;51.938;4.624;2023-04-09T11:54:03;41.97;;;21.15;;
41631;SDS011;37452;51.938;4.624;2023-04-09T11:56:29;34.17;;;20.35;;
41631;SDS011;37452;51.938;4.624;2023-04-09T11:58:55;33.30;;;19.75;;
41631;SDS011;37452;51.938;4.624;2023-04-09T12:01:20;31.40;;;18.08;;
41631;SDS011;37452;51.938;4.624;2023-04-09T12:03:51;32.75;;;17.55;;
41631;SDS011;37452;51.938;4.624;2023-04-09T12:06:20;33.72;;;18.05;;
41631;SDS011;37452;51.938;4.624;2023-04-09T12:08:51;33.67;;;18.45;;
41631;SDS011;37452;51.938;4.624;2023-04-09T12:11:26;31.67;;;18.00;;
41631;SDS011;37452;51.938;4.624;2023-04-09T12:13:59;29.90;;;17.10;;
41631;SDS011;37452;51.938;4.624;2023-04-09T12:16:31;30.08;;;17.17;;
41631;SDS011;37452;51.938;4.624;2023-04-09T12:19:01;35.80;;;18.17;;
41631;SDS011;37452;51.938;4.624;2023-04-09T12:24:12;28.30;;;16.75;;
41631;SDS011;37452;51.938;4.624;2023-04-09T12:26:37;30.13;;;16.58;;
41631;SDS011;37452;51.938;4.624;2023-04-09T12:29:03;29.95;;;16.35;;
41631;SDS011;37452;51.938;4.624;2023-04-09T12:31:28;30.30;;;17.10;;
41631;SDS011;37452;51.938;4.624;2023-04-09T12:33:53;29.30;;;16.80;;
41631;SDS011;37452;51.938;4.624;2023-04-09T12:36:18;27.10;;;15.73;;
41631;SDS011;37452;51.938;4.624;2023-04-09T12:38:44;29.45;;;16.55;;
41631;SDS011;37452;51.938;4.624;2023-04-09T12:41:09;22.77;;;16.13;;
41631;SDS011;37452;51.938;4.624;2023-04-09T12:43:35;22.85;;;14.15;;
41631;SDS011;37452;51.938;4.624;2023-04-09T12:46:01;24.35;;;13.57;;
41631;SDS011;37452;51.938;4.624;2023-04-09T12:48:26;26.98;;;15.68;;
41631;SDS011;37452;51.938;4.624;2023-04-09T12:50:51;26.02;;;15.65;;
41631;SDS011;37452;51.938;4.624;2023-04-09T12:53:17;24.40;;;14.80;;
41631;SDS011;37452;51.938;4.624;2023-04-09T12:55:42;26.52;;;14.90;;
41631;SDS011;37452;51.938;4.624;2023-04-09T12:58:07;28.42;;;15.93;;
41631;SDS011;37452;51.938;4.624;2023-04-09T13:00:33;25.23;;;15.43;;
41631;SDS011;37452;51.938;4.624;2023-04-09T13:02:58;21.25;;;13.40;;
41631;SDS011;37452;51.938;4.624;2023-04-09T13:05:24;25.15;;;15.00;;
41631;SDS011;37452;51.938;4.624;2023-04-09T13:07:49;23.33;;;14.63;;
41631;SDS011;37452;51.938;4.624;2023-04-09T13:10:15;25.58;;;14.07;;
41631;SDS011;37452;51.938;4.624;2023-04-09T13:12:40;22.63;;;13.75;;
41631;SDS011;37452;51.938;4.624;2023-04-09T13:15:06;27.67;;;14.68;;
41631;SDS011;37452;51.938;4.624;2023-04-09T13:17:31;21.75;;;13.32;;
41631;SDS011;37452;51.938;4.624;2023-04-09T13:19:57;22.50;;;14.55;;
41631;SDS011;37452;51.938;4.624;2023-04-09T13:22:22;25.48;;;14.15;;
41631;SDS011;37452;51.938;4.624;2023-04-09T13:24:47;22.02;;;13.50;;
41631;SDS011;37452;51.938;4.624;2023-04-09T13:27:13;22.33;;;13.48;;
41631;SDS011;37452;51.938;4.624;2023-04-09T13:29:38;23.52;;;14.15;;
41631;SDS011;37452;51.938;4.624;2023-04-09T13:32:04;22.92;;;14.40;;
41631;SDS011;37452;51.938;4.624;2023-04-09T13:34:34;23.92;;;14.10;;
41631;SDS011;37452;51.938;4.624;2023-04-09T13:37:00;23.33;;;13.32;;
41631;SDS011;37452;51.938;4.624;2023-04-09T13:39:26;22.33;;;12.68;;
41631;SDS011;37452;51.938;4.624;2023-04-09T13:41:51;23.77;;;12.82;;
41631;SDS011;37452;51.938;4.624;2023-04-09T13:44:19;22.25;;;12.93;;
41631;SDS011;37452;51.938;4.624;2023-04-09T13:46:44;20.95;;;13.25;;
41631;SDS011;37452;51.938;4.624;2023-04-09T13:49:10;21.67;;;11.90;;
41631;SDS011;37452;51.938;4.624;2023-04-09T13:51:35;22.73;;;12.38;;
41631;SDS011;37452;51.938;4.624;2023-04-09T13:54:01;20.73;;;11.77;;
41631;SDS011;37452;51.938;4.624;2023-04-09T13:56:26;19.02;;;12.05;;
41631;SDS011;37452;51.938;4.624;2023-04-09T13:58:52;19.92;;;11.40;;
41631;SDS011;37452;51.938;4.624;2023-04-09T14:01:18;18.90;;;11.50;;
41631;SDS011;37452;51.938;4.624;2023-04-09T14:03:43;19.33;;;10.75;;
41631;SDS011;37452;51.938;4.624;2023-04-09T14:06:08;19.27;;;11.40;;
41631;SDS011;37452;51.938;4.624;2023-04-09T14:08:34;17.27;;;11.13;;
41631;SDS011;37452;51.938;4.624;2023-04-09T14:11:00;18.92;;;11.20;;
41631;SDS011;37452;51.938;4.624;2023-04-09T14:13:26;16.83;;;10.75;;
41631;SDS011;37452;51.938;4.624;2023-04-09T14:15:51;17.83;;;11.45;;
41631;SDS011;37452;51.938;4.624;2023-04-09T14:18:17;18.95;;;11.25;;
41631;SDS011;37452;51.938;4.624;2023-04-09T14:20:42;17.92;;;10.68;;
41631;SDS011;37452;51.938;4.624;2023-04-09T14:23:07;21.08;;;11.63;;
41631;SDS011;37452;51.938;4.624;2023-04-09T14:25:33;17.67;;;10.30;;
41631;SDS011;37452;51.938;4.624;2023-04-09T14:27:58;19.98;;;11.38;;
41631;SDS011;37452;51.938;4.624;2023-04-09T14:30:23;19.35;;;12.15;;
41631;SDS011;37452;51.938;4.624;2023-04-09T14:32:49;19.08;;;11.27;;
41631;SDS011;37452;51.938;4.624;2023-04-09T14:35:14;20.30;;;10.75;;
41631;SDS011;37452;51.938;4.624;2023-04-09T14:37:40;21.23;;;11.10;;
41631;SDS011;37452;51.938;4.624;2023-04-09T14:40:06;21.52;;;11.98;;